This is the latest recevied weather packets stored in our database for station/object MIDVIL-WX. If no packets are shown the sender has not sent any weather packets the latest 10 day(s).
| Time | Temp. | Humidity | Pressure | Rain* | Wind** | Luminosity | Snow |
|---|---|---|---|---|---|---|---|
| 1777914055 | 21.11° C | 35% | 976.2 hPa | 0 mm | - | - | - |
| 1777913131 | 20.56° C | 47% | 976.7 hPa | 0 mm | - | - | - |
| 1777912244 | 20° C | 47% | 976.7 hPa | 0 mm | - | - | - |
| 1777911330 | 19.44° C | 47% | 976.7 hPa | 0 mm | - | - | - |
| 1777910459 | 18.89° C | 47% | 976.7 hPa | 0 mm | - | - | - |
| 1777909530 | 18.89° C | 59% | 977.3 hPa | 0 mm | - | - | - |
| 1777908647 | 18.33° C | 59% | 977.2 hPa | 0 mm | - | - | - |
| 1777907731 | 17.78° C | 59% | 977.2 hPa | 0 mm | - | - | - |
| 1777906861 | 17.22° C | 59% | 977.2 hPa | 0 mm | - | - | - |
| 1777905930 | 16.67° C | 66% | 977.5 hPa | 0 mm | - | - | - |
| 1777905048 | 16.11° C | 70% | 978.1 hPa | 0 mm | - | - | - |
| 1777904126 | 15° C | 70% | 978.1 hPa | 0 mm | - | - | - |
| 1777903263 | 14.44° C | 66% | 977.3 hPa | 0 mm | - | - | - |
| 1777902330 | 13.89° C | 70% | 977.3 hPa | 0 mm | - | - | - |
| 1777901448 | 13.33° C | 70% | 977.3 hPa | 0 mm | - | - | - |
| 1777900531 | 12.78° C | 70% | 977.3 hPa | 0 mm | - | - | - |
| 1777899659 | 12.22° C | 73% | 977.2 hPa | 0 mm | - | - | - |
| 1777898730 | 11.11° C | 80% | 977.6 hPa | 0 mm | - | - | - |
| 1777897848 | 10.56° C | 80% | 977.6 hPa | 0 mm | - | - | - |
| 1777896930 | 10° C | 80% | 977.6 hPa | 0 mm | - | - | - |
| 1777896060 | 9.44° C | 80% | 977.6 hPa | 0 mm | - | - | - |
| 1777895130 | 8.33° C | 82% | 976.6 hPa | 0 mm | - | - | - |
| 1777894247 | 7.78° C | 86% | 977 hPa | 0 mm | - | - | - |
| 1777893330 | 7.78° C | 86% | 977 hPa | 0 mm | - | - | - |
| 1777892458 | 7.22° C | 86% | 977 hPa | 0 mm | - | - | - |
* Rain latest hour (hover to see other rain measurements)
** Current wind speed in m/s (hover to see current wind gust speed)